Time;durP1;ratioP1;P1;durP2;ratioP2;P2;SDS_P1;SDS_P2;PMS_P1;PMS_P2;Temp;Humidity;BMP_temperature;BMP_pressure;BME280_temperature;BME280_humidity;BME280_pressure;Samples;Min_cycle;Max_cycle;Signal;HPM_P1;HPM_P2
2022/12/10 00:01:09;;;;;;;3.28;2.53;;;15.20;90.50;;;;;;4976263;28;20030;-88
2022/12/10 00:03:35;;;;;;;3.85;2.58;;;15.20;90.40;;;;;;4976182;28;20061;-88
2022/12/10 00:06:03;;;;;;;4.70;2.92;;;15.20;90.40;;;;;;4976084;28;20519;-89
2022/12/10 00:08:28;;;;;;;4.22;2.60;;;15.20;90.40;;;;;;4975818;28;20480;-88
2022/12/10 00:10:54;;;;;;;4.22;2.88;;;15.20;90.40;;;;;;4976245;28;20132;-89
2022/12/10 00:13:20;;;;;;;3.75;2.67;;;15.20;90.40;;;;;;4992252;28;20029;-89
2022/12/10 00:15:45;;;;;;;4.65;3.08;;;15.20;90.40;;;;;;4989986;28;20014;-88
2022/12/10 00:18:11;;;;;;;3.67;2.30;;;15.20;90.40;;;;;;4975919;28;20031;-88
2022/12/10 00:20:37;;;;;;;3.95;2.75;;;15.20;90.40;;;;;;4992335;28;20018;-89
2022/12/10 00:23:03;;;;;;;6.68;3.00;;;15.20;90.40;;;;;;4993694;28;20022;-88
2022/12/10 00:25:29;;;;;;;3.80;2.90;;;15.20;90.40;;;;;;4978266;28;20093;-89
2022/12/10 00:27:55;;;;;;;4.68;2.80;;;15.20;90.50;;;;;;4995406;28;20045;-88
2022/12/10 00:30:20;;;;;;;4.80;2.67;;;15.20;90.50;;;;;;4984060;28;20070;-88
2022/12/10 00:32:46;;;;;;;3.60;2.70;;;15.10;90.50;;;;;;4976068;28;20478;-89
2022/12/10 00:35:12;;;;;;;5.00;2.88;;;15.10;90.50;;;;;;4975747;28;20030;-89
2022/12/10 00:37:37;;;;;;;4.75;2.63;;;15.10;90.50;;;;;;4991583;28;20029;-87
2022/12/10 00:40:03;;;;;;;5.70;2.72;;;15.20;90.60;;;;;;4992086;28;20023;-88
2022/12/10 00:42:29;;;;;;;4.35;3.00;;;15.10;90.50;;;;;;4993022;28;20373;-87
2022/12/10 00:44:54;;;;;;;4.45;2.97;;;15.10;90.60;;;;;;4993204;28;20259;-87
2022/12/10 00:47:20;;;;;;;5.50;3.50;;;15.10;90.60;;;;;;4975803;28;20512;-88
2022/12/10 00:49:45;;;;;;;5.07;3.03;;;15.10;90.60;;;;;;4993283;28;20089;-88
2022/12/10 00:52:11;;;;;;;5.88;3.25;;;15.10;90.60;;;;;;4979541;28;20125;-88
2022/12/10 00:54:36;;;;;;;5.45;3.15;;;15.10;90.60;;;;;;4995692;28;20122;-88
2022/12/10 00:57:02;;;;;;;4.55;3.00;;;15.20;90.60;;;;;;4997223;28;20106;-87
2022/12/10 00:59:27;;;;;;;4.93;2.90;;;15.20;90.60;;;;;;4979592;28;20109;-89
2022/12/10 01:01:53;;;;;;;4.18;2.80;;;15.20;90.50;;;;;;4996571;28;20027;-88
2022/12/10 01:04:18;;;;;;;4.30;2.97;;;15.20;90.50;;;;;;4979621;28;20570;-88
2022/12/10 01:06:47;;;;;;;4.57;3.10;;;15.20;90.50;;;;;;4995511;28;20121;-87
2022/12/10 01:09:15;;;;;;;4.75;2.70;;;15.20;90.40;;;;;;4979080;28;20026;-88
2022/12/10 01:11:43;;;;;;;5.50;3.13;;;15.20;90.40;;;;;;4979960;28;20169;-89
2022/12/10 01:14:11;;;;;;;4.82;3.17;;;15.20;90.40;;;;;;4979289;28;20026;-88
2022/12/10 01:16:37;;;;;;;5.97;2.97;;;15.20;90.40;;;;;;4978812;28;20026;-88
2022/12/10 01:19:03;;;;;;;6.20;3.25;;;15.20;90.40;;;;;;4979001;28;20018;-88
2022/12/10 01:21:30;;;;;;;5.63;3.00;;;15.30;90.40;;;;;;4979152;28;20034;-88
2022/12/10 01:23:56;;;;;;;5.10;2.90;;;15.20;90.40;;;;;;4996583;28;20022;-88
2022/12/10 01:26:25;;;;;;;4.72;2.88;;;15.20;90.40;;;;;;4979004;28;20026;-89
2022/12/10 01:28:52;;;;;;;3.80;2.50;;;15.20;90.70;;;;;;4996169;28;20069;-88
2022/12/10 01:31:21;;;;;;;4.63;2.83;;;15.20;90.40;;;;;;4978762;28;20147;-88
2022/12/10 01:33:48;;;;;;;3.78;2.78;;;15.20;90.40;;;;;;4978776;28;20022;-88
2022/12/10 01:36:17;;;;;;;4.00;2.40;;;15.20;90.40;;;;;;4979010;28;20082;-88
2022/12/10 01:38:43;;;;;;;4.38;2.90;;;15.10;90.50;;;;;;4996038;28;20476;-89
2022/12/10 01:41:14;;;;;;;5.10;2.90;;;15.10;90.50;;;;;;4979224;28;20037;-88
2022/12/10 01:43:55;;;;;;;4.60;2.38;;;15.20;90.50;;;;;;4996115;28;20022;-87
2022/12/10 01:46:23;;;;;;;4.22;2.78;;;15.10;90.50;;;;;;4978602;28;20026;-88
2022/12/10 01:48:49;;;;;;;3.67;2.60;;;15.10;90.50;;;;;;4995906;28;20033;-88
2022/12/10 01:51:15;;;;;;;3.92;2.80;;;15.10;90.60;;;;;;4978118;28;20072;-88
2022/12/10 01:53:41;;;;;;;3.63;2.47;;;15.10;90.50;;;;;;4995904;28;20444;-89
2022/12/10 01:56:10;;;;;;;4.30;2.47;;;15.00;90.60;;;;;;4995684;28;20041;-88
2022/12/10 01:58:35;;;;;;;4.53;2.70;;;15.10;90.60;;;;;;4978393;28;20026;-88
2022/12/10 02:01:27;;;;;;;4.43;2.75;;;15.10;90.60;;;;;;4978307;28;20080;-89
2022/12/10 02:04:01;;;;;;;4.93;2.60;;;15.10;90.60;;;;;;4978095;28;20041;-88
2022/12/10 02:06:42;;;;;;;4.68;2.75;;;15.10;90.60;;;;;;4996558;28;20026;-90
2022/12/10 02:09:27;;;;;;;4.20;2.97;;;15.10;90.50;;;;;;4978203;28;20030;-88
2022/12/10 02:12:08;;;;;;;2.75;2.38;;;15.10;90.50;;;;;;4964768;28;20556;-88
2022/12/10 02:14:49;;;;;;;4.10;2.58;;;15.20;90.50;;;;;;4977790;28;20038;-88
2022/12/10 02:17:27;;;;;;;5.20;2.80;;;15.20;90.40;;;;;;4978028;28;20027;-88
2022/12/10 02:20:03;;;;;;;5.10;2.47;;;15.20;90.40;;;;;;4976107;28;20034;-88
2022/12/10 02:22:38;;;;;;;4.18;2.75;;;15.20;90.40;;;;;;4992514;28;20030;-87
2022/12/10 02:25:06;;;;;;;6.72;2.60;;;15.20;90.40;;;;;;4978133;28;20030;-88
2022/12/10 02:28:00;;;;;;;3.70;2.60;;;15.20;90.40;;;;;;4978766;28;20038;-87
2022/12/10 02:30:27;;;;;;;4.00;2.42;;;15.20;90.40;;;;;;4994724;28;20113;-88
2022/12/10 02:32:54;;;;;;;4.22;2.80;;;15.20;90.40;;;;;;4978203;28;20522;-88
2022/12/10 02:35:24;;;;;;;3.83;2.83;;;15.20;90.40;;;;;;4977848;28;20035;-89
2022/12/10 02:38:03;;;;;;;3.55;2.58;;;15.20;90.40;;;;;;4977517;28;20029;-88
2022/12/10 02:40:32;;;;;;;3.45;2.60;;;15.10;90.40;;;;;;4995008;28;20085;-88
2022/12/10 02:42:57;;;;;;;7.13;2.50;;;15.10;90.50;;;;;;4977827;28;20516;-88
2022/12/10 02:45:26;;;;;;;3.90;2.40;;;15.10;90.50;;;;;;4995066;28;20062;-88
2022/12/10 02:47:54;;;;;;;3.83;3.00;;;15.10;90.50;;;;;;4994969;28;20027;-88
2022/12/10 02:50:21;;;;;;;2.92;2.45;;;15.10;90.50;;;;;;4977521;28;20511;-88
2022/12/10 02:52:47;;;;;;;4.22;2.85;;;15.10;90.50;;;;;;4993735;28;20113;-88
2022/12/10 02:55:13;;;;;;;3.72;2.42;;;15.10;90.50;;;;;;4994662;28;20102;-86
2022/12/10 02:58:22;;;;;;;5.25;2.58;;;15.10;90.60;;;;;;4977134;28;20081;-88
2022/12/10 03:01:18;;;;;;;3.15;2.33;;;15.10;90.90;;;;;;4915690;29;20064;-88
2022/12/10 03:03:56;;;;;;;3.22;2.42;;;15.10;90.60;;;;;;4907820;29;20036;-88
2022/12/10 03:06:41;;;;;;;2.95;2.33;;;15.10;90.60;;;;;;4934512;29;20070;-88
2022/12/10 03:09:44;;;;;;;2.33;2.13;;;15.10;90.60;;;;;;4920518;29;20084;-88
2022/12/10 03:12:20;;;;;;;3.38;2.28;;;15.10;90.50;;;;;;4859406;29;20073;-88
2022/12/10 03:14:47;;;;;;;4.25;2.53;;;15.10;90.50;;;;;;4858694;29;20042;-88
2022/12/10 03:17:14;;;;;;;3.22;2.33;;;15.10;90.50;;;;;;4859409;29;20029;-88
2022/12/10 03:19:44;;;;;;;3.17;2.17;;;15.10;90.40;;;;;;4859213;29;20047;-89
2022/12/10 03:22:12;;;;;;;3.03;2.00;;;15.10;90.40;;;;;;4851751;29;20144;-88
2022/12/10 03:24:40;;;;;;;5.07;2.28;;;15.20;90.40;;;;;;4857498;29;20133;-88
2022/12/10 03:27:08;;;;;;;5.45;2.58;;;15.20;90.40;;;;;;4853082;29;20034;-88
2022/12/10 03:29:39;;;;;;;2.90;2.25;;;15.20;90.40;;;;;;4857505;29;20041;-88
2022/12/10 03:32:05;;;;;;;2.35;2.08;;;15.20;90.40;;;;;;4853139;29;20428;-88
2022/12/10 03:34:31;;;;;;;2.70;2.10;;;15.20;90.40;;;;;;4866911;29;20074;-88
2022/12/10 03:36:58;;;;;;;4.40;2.33;;;15.10;90.40;;;;;;4896324;29;20047;-88
2022/12/10 03:39:25;;;;;;;3.03;2.20;;;15.20;90.50;;;;;;4880448;29;20061;-89
2022/12/10 03:41:50;;;;;;;3.92;2.47;;;15.10;90.50;;;;;;4896105;29;20068;-89
2022/12/10 03:44:28;;;;;;;3.25;2.20;;;15.10;90.50;;;;;;4880470;29;20655;-88
2022/12/10 03:46:53;;;;;;;4.60;2.70;;;15.10;90.50;;;;;;4895280;28;20038;-88
2022/12/10 03:49:19;;;;;;;4.35;2.20;;;15.10;90.50;;;;;;4992728;28;20045;-88
2022/12/10 03:51:44;;;;;;;2.72;2.22;;;15.10;90.50;;;;;;4993943;28;20023;-88
2022/12/10 03:54:10;;;;;;;3.50;2.40;;;15.10;90.50;;;;;;4973287;28;20027;-88
2022/12/10 03:56:36;;;;;;;2.78;2.05;;;15.10;90.50;;;;;;4974841;28;20019;-88
2022/12/10 03:59:01;;;;;;;4.30;2.33;;;15.10;90.60;;;;;;4973254;28;20045;-88
2022/12/10 04:01:27;;;;;;;4.40;2.80;;;15.10;90.60;;;;;;4973357;28;20058;-87
2022/12/10 04:03:52;;;;;;;6.32;2.85;;;15.00;90.60;;;;;;4976591;28;20496;-87
2022/12/10 04:06:19;;;;;;;3.75;2.17;;;15.00;90.60;;;;;;4994107;28;20357;-88
2022/12/10 04:08:45;;;;;;;4.22;2.33;;;15.10;90.60;;;;;;4975949;28;20022;-89
2022/12/10 04:11:13;;;;;;;4.57;2.33;;;15.10;90.60;;;;;;4976423;28;20030;-88
2022/12/10 04:16:28;;;;;;;2.90;2.22;;;15.00;90.60;;;;;;4985589;28;20032;-88
2022/12/10 04:19:03;;;;;;;3.53;2.47;;;15.00;90.60;;;;;;4976035;28;20170;-88
2022/12/10 04:27:05;;;;;;;3.20;2.45;;;15.00;90.50;;;;;;4998300;28;20399;-88
2022/12/10 04:29:31;;;;;;;2.83;2.13;;;15.00;90.60;;;;;;4980116;28;20030;-88
2022/12/10 04:31:57;;;;;;;2.85;2.30;;;15.00;90.60;;;;;;4997479;28;20514;-88
2022/12/10 04:34:23;;;;;;;3.20;2.42;;;15.00;90.60;;;;;;4980056;28;20117;-88
2022/12/10 04:36:49;;;;;;;2.42;2.17;;;15.00;90.60;;;;;;4979863;28;20046;-88
2022/12/10 04:39:15;;;;;;;4.82;2.33;;;15.00;90.60;;;;;;4987840;28;20443;-88
2022/12/10 04:41:43;;;;;;;2.58;2.28;;;14.90;90.60;;;;;;4988253;28;20015;-88
2022/12/10 04:44:09;;;;;;;3.38;2.13;;;15.00;90.70;;;;;;4997283;28;20172;-88
2022/12/10 04:46:35;;;;;;;3.60;1.90;;;14.90;90.70;;;;;;4997383;28;20347;-88
2022/12/10 04:49:00;;;;;;;3.75;2.22;;;14.90;90.70;;;;;;4979794;28;20034;-88
2022/12/10 04:51:26;;;;;;;4.32;1.98;;;14.90;90.60;;;;;;4979920;28;20030;-88
2022/12/10 04:53:51;;;;;;;3.53;2.42;;;15.00;90.70;;;;;;4995772;28;20027;-88
2022/12/10 04:56:17;;;;;;;3.85;2.40;;;15.00;90.60;;;;;;4996202;28;20019;-88
2022/12/10 04:58:42;;;;;;;3.72;2.08;;;15.10;90.60;;;;;;4996032;28;20018;-88
2022/12/10 05:01:10;;;;;;;3.97;2.30;;;15.10;90.50;;;;;;4995614;28;20019;-87
2022/12/10 05:03:36;;;;;;;3.03;2.20;;;15.10;90.40;;;;;;4979309;28;20019;-89
2022/12/10 05:06:03;;;;;;;2.42;1.88;;;15.20;90.40;;;;;;4977270;28;20124;-88
2022/12/10 05:08:29;;;;;;;3.83;2.25;;;15.20;90.40;;;;;;4978897;28;20399;-88
2022/12/10 05:10:55;;;;;;;3.08;2.15;;;15.20;90.40;;;;;;4980115;28;20022;-88
2022/12/10 05:13:20;;;;;;;2.35;1.90;;;15.20;90.40;;;;;;4971436;28;20031;-88
2022/12/10 05:15:46;;;;;;;2.35;1.92;;;15.30;90.40;;;;;;4996667;28;20093;-88
2022/12/10 05:18:11;;;;;;;4.38;2.40;;;15.30;90.40;;;;;;4979458;28;20105;-89
2022/12/10 05:20:37;;;;;;;3.80;2.13;;;15.40;90.40;;;;;;4996882;28;20027;-88
2022/12/10 05:25:52;;;;;;;3.05;2.00;;;15.50;90.40;;;;;;4996342;28;20033;-88
2022/12/10 05:28:22;;;;;;;3.78;2.08;;;15.50;90.40;;;;;;4959724;28;20062;-88
2022/12/10 05:30:48;;;;;;;3.72;2.13;;;15.50;90.30;;;;;;4959538;28;20034;-89
2022/12/10 05:33:14;;;;;;;2.88;2.15;;;15.60;90.30;;;;;;4963108;28;20037;-88
2022/12/10 05:35:40;;;;;;;2.30;1.92;;;15.60;90.30;;;;;;4994524;28;20027;-88
2022/12/10 05:38:05;;;;;;;2.75;1.83;;;15.60;90.20;;;;;;4978587;28;20150;-88
2022/12/10 05:40:35;;;;;;;3.38;2.20;;;15.70;90.20;;;;;;4978845;28;20126;-88
2022/12/10 05:43:01;;;;;;;3.08;2.20;;;15.70;90.20;;;;;;4978625;28;20022;-88
2022/12/10 05:45:26;;;;;;;2.40;1.95;;;15.70;90.20;;;;;;4996430;28;20092;-87
2022/12/10 05:47:52;;;;;;;3.28;1.90;;;15.70;90.20;;;;;;4978408;28;20026;-88
2022/12/10 05:50:17;;;;;;;2.40;2.00;;;15.80;90.20;;;;;;4994586;28;20030;-88
2022/12/10 05:52:43;;;;;;;3.25;2.17;;;15.80;90.30;;;;;;4978382;28;20034;-88
2022/12/10 05:55:09;;;;;;;2.30;1.80;;;15.80;90.20;;;;;;4978286;28;20030;-87
2022/12/10 05:57:36;;;;;;;3.15;2.08;;;15.80;90.20;;;;;;4994811;28;20018;-88
2022/12/10 06:00:04;;;;;;;2.78;1.80;;;15.90;90.20;;;;;;4978329;28;20507;-88
2022/12/10 06:02:32;;;;;;;2.85;2.10;;;15.90;90.20;;;;;;4997850;28;20026;-89
2022/12/10 06:04:57;;;;;;;4.00;1.75;;;15.90;90.30;;;;;;4995683;28;20030;-87
2022/12/10 06:07:23;;;;;;;3.03;1.98;;;15.90;90.20;;;;;;4978357;28;20557;-88
2022/12/10 06:09:48;;;;;;;2.75;2.17;;;15.90;90.20;;;;;;4982065;28;20026;-87
2022/12/10 06:12:14;;;;;;;2.40;2.10;;;15.90;90.10;;;;;;4978317;28;20033;-89
2022/12/10 06:14:39;;;;;;;2.90;1.98;;;15.90;90.00;;;;;;4978043;28;20380;-88
2022/12/10 06:17:05;;;;;;;2.75;2.08;;;15.90;90.00;;;;;;4978156;28;20396;-88
2022/12/10 06:19:30;;;;;;;3.67;2.40;;;15.90;90.00;;;;;;4977984;28;20488;-88
2022/12/10 06:21:57;;;;;;;2.25;2.05;;;15.90;89.90;;;;;;4977741;28;20026;-89
2022/12/10 06:24:23;;;;;;;3.38;2.28;;;15.90;89.80;;;;;;4978001;28;20073;-88
2022/12/10 06:26:49;;;;;;;3.83;2.10;;;15.90;89.70;;;;;;4978008;28;20065;-89
2022/12/10 06:29:14;;;;;;;2.72;1.92;;;16.00;89.80;;;;;;4986632;28;20030;-88
2022/12/10 06:31:40;;;;;;;2.42;2.17;;;15.90;89.70;;;;;;4977990;28;20022;-89
2022/12/10 06:34:05;;;;;;;3.40;2.20;;;15.90;89.60;;;;;;4992669;28;20041;-88
2022/12/10 06:36:31;;;;;;;3.13;2.10;;;15.90;89.70;;;;;;4985965;28;20030;-89
2022/12/10 06:38:56;;;;;;;3.03;1.83;;;15.90;89.70;;;;;;4989453;28;20049;-88
2022/12/10 06:41:22;;;;;;;3.35;2.15;;;15.90;90.20;;;;;;4977715;28;20036;-88
2022/12/10 06:43:48;;;;;;;2.80;2.10;;;15.90;89.70;;;;;;4977637;28;20025;-88
2022/12/10 06:46:16;;;;;;;2.05;1.85;;;15.80;89.70;;;;;;4977603;28;20490;-88
2022/12/10 06:48:43;;;;;;;2.80;1.98;;;15.90;89.70;;;;;;4976649;28;20029;-88
2022/12/10 06:51:09;;;;;;;2.63;2.22;;;15.90;89.70;;;;;;4977615;28;20026;-89
2022/12/10 06:53:36;;;;;;;2.78;2.10;;;15.90;89.80;;;;;;4977269;28;20121;-88
2022/12/10 06:56:03;;;;;;;2.63;2.00;;;15.90;89.80;;;;;;4977346;28;20549;-88
2022/12/10 06:58:30;;;;;;;2.53;1.77;;;15.80;89.70;;;;;;4977436;28;20054;-89
2022/12/10 07:01:07;;;;;;;2.30;1.80;;;15.80;89.80;;;;;;4977166;28;20023;-88
2022/12/10 07:03:33;;;;;;;2.33;1.80;;;15.80;89.80;;;;;;4977134;28;20507;-88
2022/12/10 07:06:02;;;;;;;2.88;1.80;;;15.80;89.80;;;;;;4976827;28;20045;-88
2022/12/10 07:08:28;;;;;;;1.90;1.70;;;15.80;89.90;;;;;;4994634;28;20019;-89
2022/12/10 07:10:54;;;;;;;1.58;1.48;;;15.80;89.80;;;;;;4994758;28;20022;-88
2022/12/10 07:13:20;;;;;;;3.33;1.60;;;15.80;89.90;;;;;;4977185;28;20077;-88
2022/12/10 07:15:46;;;;;;;3.70;2.20;;;15.80;89.90;;;;;;4976887;28;20026;-88
2022/12/10 07:18:11;;;;;;;3.13;1.75;;;15.70;89.90;;;;;;4994115;28;20026;-88
2022/12/10 07:20:37;;;;;;;5.07;2.10;;;15.70;90.00;;;;;;4977145;28;20030;-88
2022/12/10 07:23:02;;;;;;;2.30;1.92;;;15.70;90.00;;;;;;4976919;28;20073;-88
2022/12/10 07:25:28;;;;;;;2.13;1.77;;;15.70;90.00;;;;;;4993031;28;20117;-88
2022/12/10 07:27:53;;;;;;;3.05;2.05;;;15.70;89.90;;;;;;4993197;28;20121;-88
2022/12/10 07:30:19;;;;;;;2.40;1.73;;;15.70;89.90;;;;;;4976676;28;20030;-89
2022/12/10 07:32:45;;;;;;;2.17;1.67;;;15.70;89.90;;;;;;4976735;28;20491;-88
2022/12/10 07:35:11;;;;;;;2.35;1.60;;;15.70;89.90;;;;;;4976660;28;20159;-87
2022/12/10 07:37:37;;;;;;;4.15;2.33;;;15.60;89.90;;;;;;4976702;28;20054;-89
2022/12/10 07:40:03;;;;;;;2.45;1.80;;;15.60;90.00;;;;;;4968736;28;20122;-89
2022/12/10 07:42:28;;;;;;;2.80;2.03;;;15.70;90.00;;;;;;4973556;28;20054;-89
2022/12/10 07:44:54;;;;;;;2.70;2.35;;;15.60;89.90;;;;;;4971745;28;20030;-88
2022/12/10 07:47:19;;;;;;;2.45;1.80;;;15.60;90.00;;;;;;4986015;28;20030;-88
2022/12/10 07:49:45;;;;;;;2.97;1.95;;;15.60;90.00;;;;;;4976176;28;20056;-88
2022/12/10 07:52:11;;;;;;;3.00;2.33;;;15.60;90.00;;;;;;4979197;28;20050;-88
2022/12/10 07:54:36;;;;;;;2.85;2.05;;;15.60;90.00;;;;;;4992258;28;20061;-88
2022/12/10 07:57:02;;;;;;;2.55;1.90;;;15.60;90.00;;;;;;4976467;28;20031;-88
2022/12/10 07:59:28;;;;;;;2.30;1.60;;;15.60;90.00;;;;;;4983537;28;20022;-89
2022/12/10 08:01:53;;;;;;;2.60;2.08;;;15.60;90.00;;;;;;4981575;28;20157;-88
2022/12/10 08:04:19;;;;;;;2.83;1.63;;;15.60;90.00;;;;;;4993566;28;20034;-88
2022/12/10 08:06:44;;;;;;;3.70;2.17;;;15.60;90.00;;;;;;4976755;28;20053;-88
2022/12/10 08:09:11;;;;;;;2.33;1.83;;;15.60;90.00;;;;;;4976117;28;20107;-88
2022/12/10 08:11:37;;;;;;;2.78;2.00;;;15.50;90.00;;;;;;4976249;28;20484;-88
2022/12/10 08:14:03;;;;;;;2.72;1.83;;;15.50;90.00;;;;;;4975756;28;20062;-89
2022/12/10 08:16:30;;;;;;;2.28;1.77;;;15.50;90.00;;;;;;4975985;28;20023;-89
2022/12/10 08:18:58;;;;;;;3.47;1.83;;;15.50;90.00;;;;;;4976146;28;20065;-88
2022/12/10 08:21:27;;;;;;;2.78;1.95;;;15.50;90.00;;;;;;4993712;28;20108;-88
2022/12/10 08:23:53;;;;;;;3.00;1.77;;;15.50;90.00;;;;;;4976033;28;20072;-88
2022/12/10 08:26:21;;;;;;;3.00;1.85;;;15.50;90.00;;;;;;4993458;28;20033;-88
2022/12/10 08:28:48;;;;;;;2.80;2.03;;;15.50;90.00;;;;;;4975715;28;20468;-88
2022/12/10 08:31:15;;;;;;;2.50;1.70;;;15.50;90.00;;;;;;4975991;28;20026;-88
2022/12/10 08:33:41;;;;;;;2.45;1.90;;;15.50;90.00;;;;;;4975675;28;20085;-87
2022/12/10 08:36:11;;;;;;;3.28;2.28;;;15.50;90.00;;;;;;4976192;28;20022;-89
2022/12/10 08:38:36;;;;;;;2.75;1.90;;;15.50;90.00;;;;;;4975825;28;20029;-89
2022/12/10 08:41:11;;;;;;;2.28;1.63;;;15.60;89.90;;;;;;4975692;28;20027;-88
2022/12/10 08:43:37;;;;;;;4.57;1.98;;;15.60;89.90;;;;;;4975721;28;20053;-88
2022/12/10 08:46:03;;;;;;;1.92;1.63;;;15.60;89.90;;;;;;4975834;28;20030;-88
2022/12/10 08:48:30;;;;;;;2.80;1.92;;;15.60;89.90;;;;;;4976027;28;20027;-89
2022/12/10 08:50:55;;;;;;;2.45;1.95;;;15.60;89.90;;;;;;4978632;28;20058;-88
2022/12/10 08:53:21;;;;;;;2.72;1.90;;;15.60;89.80;;;;;;4987226;28;20053;-88
2022/12/10 08:55:50;;;;;;;2.72;2.00;;;15.60;89.80;;;;;;4985540;28;20026;-88
2022/12/10 08:58:16;;;;;;;2.42;2.08;;;15.60;89.80;;;;;;4975513;28;20030;-89
2022/12/10 09:00:41;;;;;;;2.85;1.92;;;15.60;89.70;;;;;;5025075;23;20043;-92
2022/12/10 09:03:08;;;;;;;1.95;1.60;;;15.60;89.80;;;;;;4989852;28;20484;-93
2022/12/10 09:05:34;;;;;;;3.42;2.00;;;15.60;89.70;;;;;;4993653;28;20026;-91
2022/12/10 09:08:00;;;;;;;2.63;1.90;;;15.60;89.70;;;;;;4993591;28;20041;-93
2022/12/10 09:10:25;;;;;;;3.30;2.38;;;15.60;89.70;;;;;;4977162;28;20433;-92
2022/12/10 09:12:51;;;;;;;4.75;1.85;;;15.70;89.80;;;;;;4993865;28;20034;-92
2022/12/10 09:15:17;;;;;;;2.53;1.95;;;15.60;89.70;;;;;;5001677;28;20049;-93
2022/12/10 09:17:42;;;;;;;2.80;1.80;;;15.60;89.70;;;;;;5013470;28;20492;-93
2022/12/10 09:20:08;;;;;;;3.15;1.98;;;15.60;89.70;;;;;;5013598;28;20030;-92
2022/12/10 09:22:36;;;;;;;2.05;1.85;;;15.60;89.60;;;;;;5013447;28;20054;-92
2022/12/10 09:25:03;;;;;;;2.95;2.00;;;15.60;89.50;;;;;;5012899;28;20037;-92
2022/12/10 09:27:30;;;;;;;2.17;1.95;;;15.60;89.50;;;;;;5003540;28;20034;-92
2022/12/10 09:29:56;;;;;;;2.60;1.90;;;15.60;89.50;;;;;;4993407;28;20113;-92
2022/12/10 09:32:21;;;;;;;2.25;1.92;;;15.60;89.50;;;;;;5009723;28;20080;-92
2022/12/10 09:34:51;;;;;;;4.00;2.10;;;15.70;89.60;;;;;;5009386;28;20056;-92
2022/12/10 09:37:16;;;;;;;4.32;2.13;;;15.60;89.60;;;;;;4993337;28;20272;-93
2022/12/10 09:39:42;;;;;;;2.78;1.90;;;15.60;89.70;;;;;;4992845;28;20508;-92
2022/12/10 09:42:30;;;;;;;3.95;2.28;;;15.60;89.80;;;;;;5007465;28;20022;-92
2022/12/10 09:45:31;;;;;;;3.10;2.00;;;15.60;89.80;;;;;;5012816;28;20033;-92
2022/12/10 09:48:10;;;;;;;2.80;1.85;;;15.60;89.80;;;;;;5002419;28;20094;-92
2022/12/10 09:50:50;;;;;;;3.45;2.30;;;15.60;89.80;;;;;;5010143;28;20500;-92
2022/12/10 09:53:19;;;;;;;2.88;2.03;;;15.60;89.70;;;;;;4989259;28;20030;-93
2022/12/10 09:55:47;;;;;;;2.28;1.83;;;15.60;89.70;;;;;;4984074;28;20113;-92
2022/12/10 09:58:25;;;;;;;2.08;1.80;;;15.70;89.70;;;;;;4976201;28;20081;-93
2022/12/10 10:01:00;;;;;;;2.55;1.77;;;15.70;89.70;;;;;;4990245;28;20053;-91
2022/12/10 10:03:25;;;;;;;2.63;1.67;;;15.70;89.70;;;;;;4976091;28;20034;-93
2022/12/10 10:05:56;;;;;;;2.63;2.00;;;15.70;89.70;;;;;;4976636;28;20035;-93
2022/12/10 10:08:36;;;;;;;3.78;2.30;;;15.70;89.70;;;;;;4976496;28;20023;-93
2022/12/10 10:11:02;;;;;;;;;;;15.60;89.70;;;;;;4976340;28;20484;-92
2022/12/10 10:13:35;;;;;;;2.80;1.70;;;15.70;89.80;;;;;;5009123;28;19906;-92
2022/12/10 10:16:23;;;;;;;2.67;1.95;;;15.60;89.80;;;;;;4976443;28;20058;-92
2022/12/10 10:18:57;;;;;;;2.80;1.92;;;15.60;89.80;;;;;;4992478;28;20114;-92
2022/12/10 10:21:39;;;;;;;2.97;1.90;;;15.70;89.90;;;;;;4976182;28;20062;-92
2022/12/10 10:24:06;;;;;;;2.40;1.98;;;15.70;89.90;;;;;;4975210;28;20027;-92
2022/12/10 10:26:32;;;;;;;3.75;2.40;;;15.60;89.90;;;;;;4976161;28;20050;-92
2022/12/10 10:29:01;;;;;;;4.40;1.83;;;15.60;89.90;;;;;;4976093;28;20027;-92
2022/12/10 10:31:30;;;;;;;3.67;1.90;;;15.60;90.00;;;;;;4976277;28;20121;-92
2022/12/10 10:33:59;;;;;;;3.13;1.98;;;15.60;90.00;;;;;;4976010;28;20278;-92
2022/12/10 10:36:32;;;;;;;2.70;1.92;;;15.60;89.90;;;;;;4975801;28;20085;-92
2022/12/10 10:39:11;;;;;;;2.88;1.98;;;15.60;89.90;;;;;;4987593;28;20027;-92
2022/12/10 10:41:39;;;;;;;2.90;2.08;;;15.60;89.90;;;;;;4980287;28;20023;-92
2022/12/10 10:44:18;;;;;;;2.50;1.75;;;15.60;89.90;;;;;;4995208;28;20168;-92
2022/12/10 10:46:49;;;;;;;3.28;1.88;;;15.60;89.90;;;;;;4995178;28;20030;-92
2022/12/10 10:49:21;;;;;;;2.03;1.83;;;15.60;90.00;;;;;;5007819;28;20125;-92
2022/12/10 10:51:47;;;;;;;2.42;1.98;;;15.50;90.00;;;;;;4999288;28;20030;-94
2022/12/10 10:54:48;;;;;;;3.58;2.35;;;15.60;90.00;;;;;;4994806;28;20030;-92
2022/12/10 10:57:37;;;;;;;2.72;2.10;;;15.60;90.00;;;;;;4994992;28;20026;-91
2022/12/10 11:00:18;;;;;;;2.63;1.92;;;15.60;90.00;;;;;;4976634;28;20023;-93
2022/12/10 11:02:44;;;;;;;2.95;2.10;;;15.60;90.00;;;;;;4991649;28;20057;-92
2022/12/10 11:05:26;;;;;;;2.55;2.17;;;15.60;90.00;;;;;;4991689;28;20031;-92
2022/12/10 11:08:23;;;;;;;4.35;2.00;;;15.60;90.00;;;;;;4978883;28;20027;-93
2022/12/10 11:10:51;;;;;;;3.17;2.08;;;15.60;90.00;;;;;;4996204;28;20081;-93
2022/12/10 11:13:28;;;;;;;2.08;1.83;;;15.60;90.00;;;;;;5010977;28;20034;-92
2022/12/10 11:16:15;;;;;;;2.50;1.85;;;15.60;90.00;;;;;;5011105;28;20114;-91
2022/12/10 11:18:50;;;;;;;2.28;2.03;;;15.60;90.00;;;;;;5002176;28;20058;-92
2022/12/10 11:21:21;;;;;;;3.70;2.17;;;15.50;90.00;;;;;;4991617;28;20511;-93
2022/12/10 11:23:50;;;;;;;3.13;2.20;;;15.60;90.00;;;;;;4991259;28;20117;-92
2022/12/10 11:26:29;;;;;;;3.40;2.10;;;15.50;90.00;;;;;;4996375;28;20019;-92
2022/12/10 11:29:33;;;;;;;2.00;1.70;;;15.50;90.00;;;;;;5011005;28;20498;-92
2022/12/10 11:32:10;;;;;;;2.45;1.88;;;15.50;90.10;;;;;;5007630;28;20019;-93
2022/12/10 11:35:03;;;;;;;4.55;2.05;;;15.60;90.10;;;;;;4990461;28;20066;-92
2022/12/10 11:37:48;;;;;;;3.15;2.05;;;15.50;90.10;;;;;;4991462;28;20023;-92
2022/12/10 11:40:53;;;;;;;2.38;1.90;;;15.50;90.10;;;;;;4990642;28;20054;-92
2022/12/10 11:43:34;;;;;;;2.83;2.00;;;15.50;90.10;;;;;;4974167;28;20031;-93
2022/12/10 11:46:14;;;;;;;2.45;1.90;;;15.40;90.10;;;;;;4975616;28;20027;-92
2022/12/10 11:48:58;;;;;;;3.63;2.15;;;15.50;90.10;;;;;;4990639;28;20049;-92
2022/12/10 11:51:33;;;;;;;2.28;1.63;;;15.50;90.10;;;;;;5004677;28;20121;-92
2022/12/10 11:54:23;;;;;;;3.05;1.83;;;15.50;90.10;;;;;;4991631;28;20033;-92
2022/12/10 11:57:03;;;;;;;;;;;15.40;90.10;;;;;;4991240;28;20023;-93
2022/12/10 11:59:55;;;;;;;2.45;1.88;;;15.40;90.00;;;;;;5005555;28;19993;-92
2022/12/10 12:02:39;;;;;;;2.90;2.08;;;15.40;90.00;;;;;;5006870;28;20031;-91
2022/12/10 12:05:26;;;;;;;3.22;1.98;;;15.40;90.10;;;;;;4990626;28;20480;-93
2022/12/10 12:08:07;;;;;;;2.63;1.90;;;15.50;90.00;;;;;;4974356;28;20077;-92
2022/12/10 12:10:51;;;;;;;3.13;1.95;;;15.40;90.00;;;;;;4990587;28;20031;-92
2022/12/10 12:13:32;;;;;;;2.38;1.92;;;15.40;90.00;;;;;;4990961;28;20476;-92
2022/12/10 12:16:15;;;;;;;2.22;2.00;;;15.40;90.00;;;;;;4975927;28;20027;-92
2022/12/10 12:19:05;;;;;;;2.47;1.75;;;15.50;90.00;;;;;;4974718;28;20518;-94
2022/12/10 12:21:30;;;;;;;2.03;1.80;;;15.40;90.00;;;;;;4994117;28;20459;-92
2022/12/10 12:24:08;;;;;;;3.20;2.00;;;15.40;89.90;;;;;;4994039;28;20023;-92
2022/12/10 12:26:41;;;;;;;2.75;2.10;;;15.40;89.90;;;;;;5007264;28;20023;-92
2022/12/10 12:29:17;;;;;;;2.38;1.90;;;15.50;90.00;;;;;;4974201;28;20019;-92
2022/12/10 12:31:55;;;;;;;2.85;2.00;;;15.40;89.90;;;;;;4974187;28;20026;-92
2022/12/10 12:34:42;;;;;;;2.42;1.92;;;15.50;89.90;;;;;;4974182;28;20643;-92
2022/12/10 12:37:12;;;;;;;3.20;1.75;;;15.40;89.90;;;;;;4975550;28;20062;-93
2022/12/10 12:39:56;;;;;;;1.75;1.52;;;15.40;89.90;;;;;;4974610;28;20057;-92
2022/12/10 12:42:54;;;;;;;3.00;2.13;;;15.40;90.00;;;;;;5003489;28;20022;-92
2022/12/10 12:45:28;;;;;;;2.97;1.58;;;15.40;90.00;;;;;;4978013;28;20031;-92
2022/12/10 12:48:19;;;;;;;2.17;1.90;;;15.40;90.00;;;;;;4994720;28;20026;-92
2022/12/10 12:50:57;;;;;;;3.05;2.05;;;15.40;90.00;;;;;;4994615;28;20029;-92
2022/12/10 12:53:23;;;;;;;3.03;1.77;;;15.40;90.00;;;;;;4978180;28;20118;-92
2022/12/10 12:56:07;;;;;;;2.05;1.85;;;15.40;90.00;;;;;;4978376;28;20023;-92
2022/12/10 12:58:39;;;;;;;1.70;1.60;;;15.40;90.00;;;;;;4994555;28;20101;-92
2022/12/10 13:01:26;;;;;;;2.08;1.70;;;15.40;90.00;;;;;;5009647;28;20035;-93
2022/12/10 13:03:53;;;;;;;3.25;2.03;;;15.40;90.00;;;;;;4994733;28;20027;-92
2022/12/10 13:06:29;;;;;;;2.33;1.45;;;15.40;90.00;;;;;;4978157;28;20031;-92
2022/12/10 13:09:13;;;;;;;2.08;1.80;;;15.40;90.00;;;;;;4978169;28;20070;-92
2022/12/10 13:12:06;;;;;;;2.90;1.90;;;15.40;90.00;;;;;;4994508;28;20019;-92
2022/12/10 13:14:35;;;;;;;5.15;2.22;;;15.30;90.10;;;;;;4997548;28;20121;-92
2022/12/10 13:17:26;;;;;;;4.72;1.83;;;15.30;90.10;;;;;;5013236;28;20415;-92